Time;durP1;ratioP1;P1;durP2;ratioP2;P2;SDS_P1;SDS_P2;PMS_P1;PMS_P2;Temp;Humidity;BMP_temperature;BMP_pressure;BME280_temperature;BME280_humidity;BME280_pressure;Samples;Min_cycle;Max_cycle;Signal;HPM_P1;HPM_P2
2021/12/26 00:00:23;;;;;;;1.17;1.17;;;1.30;99.90;0.80;100498.00;;;;5018594;28;20190;-71
2021/12/26 00:02:52;;;;;;;1.80;1.67;;;1.30;99.90;0.80;100503.00;;;;5035535;28;20233;-70
2021/12/26 00:05:28;;;;;;;0.70;0.70;;;1.40;99.90;0.60;100498.00;;;;5018814;28;20194;-70
2021/12/26 00:08:01;;;;;;;2.20;1.50;;;1.20;99.90;0.70;100492.00;;;;5017923;28;20178;-70
2021/12/26 00:10:39;;;;;;;3.60;1.63;;;1.30;99.90;1.10;100493.00;;;;5017944;28;20182;-70
2021/12/26 00:13:17;;;;;;;1.07;0.97;;;1.40;99.90;0.80;100479.00;;;;5018503;28;20198;-70
2021/12/26 00:15:57;;;;;;;1.27;1.17;;;1.40;99.90;1.10;100485.00;;;;5017859;28;20179;-68
2021/12/26 00:18:31;;;;;;;1.27;0.80;;;1.50;99.90;0.70;100482.00;;;;5018421;28;20171;-68
2021/12/26 00:21:10;;;;;;;0.60;0.60;;;1.40;99.90;0.70;100433.00;;;;5017818;28;20638;-70
2021/12/26 00:23:50;;;;;;;1.27;1.17;;;1.20;99.90;1.00;100489.00;;;;5018447;28;20175;-70
2021/12/26 00:26:30;;;;;;;1.23;1.13;;;1.30;99.90;1.20;100468.00;;;;5018426;28;20163;-70
2021/12/26 00:29:08;;;;;;;1.80;1.33;;;1.40;99.90;0.70;100477.00;;;;5017488;28;20185;-70
2021/12/26 00:31:45;;;;;;;0.83;0.83;;;1.40;99.90;0.60;100473.00;;;;5017713;28;20218;-70
2021/12/26 00:34:24;;;;;;;1.93;1.80;;;1.20;99.90;0.70;100475.00;;;;5017895;28;20170;-70
2021/12/26 00:37:09;;;;;;;2.73;2.20;;;1.30;99.90;0.90;100483.00;;;;5035087;28;20536;-70
2021/12/26 00:39:40;;;;;;;1.10;1.10;;;1.30;99.90;0.80;100480.00;;;;5017953;28;20712;-70
2021/12/26 00:42:23;;;;;;;4.43;2.17;;;1.30;99.90;0.40;100460.00;;;;5018293;28;20650;-70
2021/12/26 00:45:04;;;;;;;9.30;3.70;;;1.20;99.90;0.40;100461.00;;;;5034917;28;20171;-70
2021/12/26 00:47:36;;;;;;;1.43;1.33;;;1.10;99.90;0.80;100473.00;;;;5017297;28;20644;-71
2021/12/26 00:50:16;;;;;;;3.70;1.60;;;1.20;99.90;1.10;100464.00;;;;5016681;28;20202;-68
2021/12/26 00:52:53;;;;;;;2.13;2.03;;;1.40;99.90;1.20;100472.00;;;;5016921;28;20336;-69
2021/12/26 00:55:30;;;;;;;4.97;2.90;;;1.40;99.90;1.00;100403.00;;;;5032190;28;20200;-69
2021/12/26 00:58:08;;;;;;;4.80;1.73;;;1.50;99.90;1.10;100472.00;;;;5016868;28;20770;-69
2021/12/26 01:00:44;;;;;;;1.67;1.53;;;1.40;99.90;1.10;100472.00;;;;5034623;28;20186;-69
2021/12/26 01:03:24;;;;;;;1.70;1.20;;;1.40;99.90;0.50;100471.00;;;;5016838;28;20179;-69
2021/12/26 01:06:02;;;;;;;2.77;2.37;;;1.20;99.90;0.60;100477.00;;;;5017457;28;20183;-69
2021/12/26 01:08:41;;;;;;;2.20;2.00;;;1.10;99.90;0.80;100473.00;;;;5016536;28;20655;-69
2021/12/26 01:11:32;;;;;;;0.63;0.63;;;1.20;99.90;1.00;100489.00;;;;5034430;28;20193;-69
2021/12/26 01:14:12;;;;;;;1.13;1.13;;;1.30;99.90;0.80;100420.00;;;;5017999;28;20210;-69
2021/12/26 01:16:49;;;;;;;0.30;0.30;;;1.30;99.90;0.60;100467.00;;;;5016837;28;20175;-69
2021/12/26 01:19:31;;;;;;;3.80;2.50;;;1.30;99.90;1.00;100469.00;;;;5034814;28;20170;-69
2021/12/26 01:22:10;;;;;;;2.53;1.90;;;1.40;99.90;0.70;100465.00;;;;5001651;28;20213;-69
2021/12/26 01:24:56;;;;;;;3.10;2.60;;;1.20;99.90;0.70;100471.00;;;;5016271;28;20677;-69
2021/12/26 01:27:36;;;;;;;1.63;1.53;;;1.30;99.90;0.50;100460.00;;;;5001304;28;20174;-69
2021/12/26 01:30:11;;;;;;;0.30;0.30;;;1.40;99.90;0.50;100428.00;;;;5016589;28;20261;-69
2021/12/26 01:32:45;;;;;;;2.80;1.33;;;1.20;99.90;0.60;100471.00;;;;5016265;28;20222;-70
2021/12/26 01:35:21;;;;;;;1.53;1.43;;;1.30;99.90;0.80;100459.00;;;;5017111;28;20186;-69
2021/12/26 01:37:52;;;;;;;2.10;2.00;;;1.30;99.90;1.00;100455.00;;;;5016244;28;20649;-69
2021/12/26 01:40:24;;;;;;;2.37;2.17;;;1.40;99.90;1.30;100457.00;;;;5033849;28;20643;-70
2021/12/26 01:43:02;;;;;;;1.90;1.80;;;1.50;99.90;0.50;100446.00;;;;5016073;28;20191;-69
2021/12/26 01:45:36;;;;;;;2.60;2.03;;;1.40;99.90;1.00;100449.00;;;;5016511;28;20187;-69
2021/12/26 01:48:14;;;;;;;1.17;1.10;;;1.30;99.90;1.10;100453.00;;;;5015996;28;20584;-69
2021/12/26 01:50:51;;;;;;;1.80;1.70;;;1.50;99.90;0.90;100452.00;;;;5016165;28;20191;-69
2021/12/26 01:53:36;;;;;;;1.97;1.80;;;1.50;99.90;0.30;100456.00;;;;5015951;28;20202;-69
2021/12/26 01:56:19;;;;;;;0.37;0.37;;;1.20;99.90;1.20;100442.00;;;;5017080;28;20163;-69
2021/12/26 01:58:50;;;;;;;2.47;1.87;;;1.30;99.90;0.40;100454.00;;;;5033519;28;20538;-69
2021/12/26 02:01:21;;;;;;;3.90;2.03;;;1.20;99.90;0.40;100451.00;;;;5015377;28;20611;-69
2021/12/26 02:03:49;;;;;;;0.77;0.70;;;1.20;99.90;0.50;100427.00;;;;5033526;28;20169;-69
2021/12/26 02:06:26;;;;;;;1.87;1.77;;;1.10;99.90;0.10;100433.00;;;;5031882;28;20182;-68
2021/12/26 02:09:02;;;;;;;0.80;0.73;;;1.00;99.90;0.60;100441.00;;;;5032050;28;20186;-69
2021/12/26 02:11:33;;;;;;;2.03;1.90;;;1.10;99.90;0.90;100444.00;;;;5032331;28;20639;-69
2021/12/26 02:14:13;;;;;;;1.23;1.13;;;1.30;99.90;0.90;100445.00;;;;5016515;28;20198;-69
2021/12/26 02:16:50;;;;;;;4.10;1.33;;;1.30;99.90;0.90;100449.00;;;;5016337;28;20182;-69
2021/12/26 02:19:21;;;;;;;1.87;1.37;;;1.30;99.90;0.50;100447.00;;;;5016701;28;20158;-69
2021/12/26 02:22:13;;;;;;;1.30;1.20;;;1.30;99.90;0.70;100380.00;;;;5014884;28;20194;-69
2021/12/26 02:25:11;;;;;;;0.47;0.47;;;1.30;99.90;0.60;100427.00;;;;5017315;28;20194;-69
2021/12/26 02:27:48;;;;;;;4.17;3.80;;;1.30;99.90;0.50;100429.00;;;;5018561;28;20174;-69
2021/12/26 02:30:24;;;;;;;1.60;1.50;;;1.20;99.90;0.90;100440.00;;;;5015789;28;20595;-70
2021/12/26 02:33:03;;;;;;;1.07;0.90;;;1.30;99.90;1.10;100393.00;;;;5015437;28;20739;-69
2021/12/26 02:35:39;;;;;;;2.33;2.13;;;1.40;99.90;0.90;100442.00;;;;5016329;28;20217;-69
2021/12/26 02:38:18;;;;;;;10.40;2.33;;;1.40;99.90;1.00;100434.00;;;;4999475;28;20182;-69
2021/12/26 02:40:54;;;;;;;1.97;1.77;;;1.60;99.90;0.80;100437.00;;;;5015657;28;20201;-69
2021/12/26 02:43:32;;;;;;;2.53;2.17;;;1.50;99.90;0.90;100433.00;;;;5015498;28;20183;-69
2021/12/26 02:46:12;;;;;;;3.03;2.57;;;1.40;99.90;0.80;100442.00;;;;5015917;28;20571;-69
2021/12/26 02:48:52;;;;;;;2.67;2.10;;;1.40;99.90;0.50;100430.00;;;;4999357;28;20289;-69
2021/12/26 02:51:32;;;;;;;1.20;1.13;;;1.40;99.90;0.70;100425.00;;;;5033012;28;20194;-69
2021/12/26 02:54:21;;;;;;;0.30;0.30;;;1.40;99.90;1.30;100421.00;;;;5016047;28;20191;-69
2021/12/26 02:57:00;;;;;;;2.83;2.13;;;1.50;99.90;1.00;100428.00;;;;5000244;28;20261;-69
2021/12/26 02:59:40;;;;;;;2.57;2.37;;;1.50;99.90;1.00;100424.00;;;;5015695;28;20186;-69
2021/12/26 03:02:16;;;;;;;4.03;2.13;;;1.60;99.90;0.80;100415.00;;;;5014882;28;20222;-69
2021/12/26 03:04:55;;;;;;;0.40;0.40;;;1.50;99.90;1.30;100429.00;;;;5015570;28;20186;-69
2021/12/26 03:07:34;;;;;;;3.47;2.40;;;1.50;99.90;1.30;100420.00;;;;5015665;28;20186;-69
2021/12/26 03:10:20;;;;;;;7.87;1.87;;;1.70;99.90;1.20;100431.00;;;;5015487;28;20174;-69
2021/12/26 03:12:59;;;;;;;2.20;2.10;;;1.70;99.90;1.20;100433.00;;;;5016512;28;20208;-70
2021/12/26 03:15:32;;;;;;;4.90;1.23;;;1.70;99.90;0.70;100413.00;;;;5015151;28;20671;-70
2021/12/26 03:18:09;;;;;;;4.73;2.10;;;1.50;99.90;1.40;100434.00;;;;5015832;28;20179;-69
2021/12/26 03:20:44;;;;;;;7.33;1.70;;;1.60;99.90;1.20;100438.00;;;;5019021;28;20177;-69
2021/12/26 03:23:22;;;;;;;8.93;2.43;;;1.70;99.90;1.30;100378.00;;;;5018932;28;20701;-69
2021/12/26 03:25:58;;;;;;;1.63;1.53;;;1.70;99.90;1.50;100420.00;;;;5036526;28;20189;-70
2021/12/26 03:28:32;;;;;;;3.33;1.77;;;1.70;99.90;1.10;100411.00;;;;5018787;28;20162;-69
2021/12/26 03:31:12;;;;;;;2.77;2.10;;;1.60;99.90;1.40;100410.00;;;;5018782;28;20189;-69
2021/12/26 03:33:50;;;;;;;2.90;2.17;;;1.70;99.90;0.80;100359.00;;;;5036144;28;20182;-69
2021/12/26 03:36:22;;;;;;;1.73;1.57;;;1.70;99.90;1.20;100414.00;;;;5018453;28;20190;-70
2021/12/26 03:38:59;;;;;;;1.20;1.20;;;1.60;99.90;1.20;100410.00;;;;5018872;28;20182;-69
2021/12/26 03:41:36;;;;;;;7.83;2.90;;;1.60;99.90;1.00;100414.00;;;;5018257;28;20178;-69
2021/12/26 03:44:13;;;;;;;4.10;3.80;;;1.50;99.90;0.70;100401.00;;;;5018346;28;20206;-69
2021/12/26 03:46:52;;;;;;;0.50;0.50;;;1.50;99.90;1.30;100410.00;;;;5017813;28;20344;-69
2021/12/26 03:49:29;;;;;;;0.90;0.90;;;1.60;99.90;1.20;100415.00;;;;5036107;28;20536;-70
2021/12/26 03:52:00;;;;;;;2.90;0.97;;;1.70;99.90;1.20;100413.00;;;;5018740;28;20198;-70
2021/12/26 03:54:36;;;;;;;0.50;0.50;;;1.70;99.90;1.60;100414.00;;;;5018860;28;20226;-70
2021/12/26 03:57:13;;;;;;;6.13;3.60;;;1.80;99.90;0.70;100408.00;;;;5018445;28;20175;-70
2021/12/26 03:59:44;;;;;;;0.80;0.60;;;1.50;99.90;0.60;100412.00;;;;5035973;28;20181;-70
2021/12/26 04:02:21;;;;;;;1.53;1.33;;;1.40;99.90;0.90;100351.00;;;;5018090;28;20193;-69
2021/12/26 04:04:55;;;;;;;5.43;3.07;;;1.40;99.90;0.80;100343.00;;;;5035730;28;20186;-70
2021/12/26 04:07:26;;;;;;;0.83;0.83;;;1.50;99.90;0.90;100389.00;;;;5017841;28;20175;-69
2021/12/26 04:10:04;;;;;;;0.60;0.60;;;1.40;99.90;0.70;100385.00;;;;5034470;28;20193;-69
2021/12/26 04:12:37;;;;;;;2.63;2.43;;;1.40;99.90;0.70;100392.00;;;;5017834;28;20214;-69
2021/12/26 04:15:14;;;;;;;5.93;2.63;;;1.40;99.90;0.50;100380.00;;;;5001503;28;20278;-69
2021/12/26 04:17:50;;;;;;;1.43;1.33;;;1.20;99.90;1.00;100354.00;;;;5001283;28;20283;-70
2021/12/26 04:20:22;;;;;;;0.60;0.57;;;1.40;99.90;0.80;100374.00;;;;5001922;28;20175;-69
2021/12/26 04:22:59;;;;;;;1.53;1.47;;;1.40;99.90;1.00;100396.00;;;;5018173;28;20269;-70
2021/12/26 04:25:33;;;;;;;3.17;2.00;;;1.50;99.90;1.20;100383.00;;;;5017953;28;20178;-69
2021/12/26 04:28:02;;;;;;;1.83;1.70;;;1.60;99.90;0.90;100322.00;;;;5017493;28;20213;-69
2021/12/26 04:30:36;;;;;;;3.20;2.77;;;1.60;99.90;1.10;100386.00;;;;5035033;28;20193;-70
2021/12/26 04:33:09;;;;;;;3.20;2.30;;;1.60;99.90;1.00;100390.00;;;;5017655;28;20206;-69
2021/12/26 04:35:41;;;;;;;0.40;0.40;;;1.70;99.90;1.10;100374.00;;;;5017640;28;20198;-70
2021/12/26 04:38:12;;;;;;;0.30;0.30;;;1.60;99.90;0.90;100373.00;;;;5034032;28;20179;-69
2021/12/26 04:40:46;;;;;;;1.80;0.93;;;1.60;99.90;0.80;100369.00;;;;5017372;28;20277;-69
2021/12/26 04:43:27;;;;;;;1.63;1.27;;;1.60;99.90;1.00;100371.00;;;;5017352;28;20281;-69
2021/12/26 04:46:05;;;;;;;1.17;1.17;;;1.50;99.90;1.50;100368.00;;;;5017723;28;20269;-69
2021/12/26 04:48:42;;;;;;;3.10;2.47;;;1.70;99.90;1.00;100300.00;;;;5017540;28;20190;-69
2021/12/26 04:51:17;;;;;;;1.03;1.03;;;1.60;99.90;1.20;100376.00;;;;5016111;28;20190;-69
2021/12/26 04:53:56;;;;;;;2.43;1.53;;;1.60;99.90;1.00;100291.00;;;;5017141;28;20170;-69
2021/12/26 04:56:29;;;;;;;0.37;0.37;;;1.60;99.90;0.70;100338.00;;;;5034638;28;20182;-69
2021/12/26 04:59:06;;;;;;;1.90;1.77;;;1.50;99.90;0.70;100302.00;;;;5033354;28;20660;-69
2021/12/26 05:01:42;;;;;;;5.10;4.00;;;1.40;99.90;0.80;100350.00;;;;5034832;28;20205;-70
2021/12/26 05:04:23;;;;;;;5.03;4.17;;;1.40;99.90;0.60;100338.00;;;;5017174;28;20714;-69
2021/12/26 05:06:57;;;;;;;1.27;1.17;;;1.50;99.90;0.80;100353.00;;;;5017279;28;20220;-69
2021/12/26 05:09:37;;;;;;;3.03;2.13;;;1.40;99.90;1.20;100262.00;;;;5017440;28;20662;-69
2021/12/26 05:12:17;;;;;;;2.60;1.90;;;1.60;99.90;0.70;100335.00;;;;5016955;28;20255;-69
2021/12/26 05:14:53;;;;;;;2.20;2.10;;;1.50;99.90;1.20;100351.00;;;;5016484;28;20608;-69
2021/12/26 05:17:30;;;;;;;3.20;2.90;;;1.60;99.90;1.50;100336.00;;;;5034561;28;20175;-69
2021/12/26 05:20:07;;;;;;;0.40;0.40;;;1.70;99.90;2.00;100286.00;;;;5017730;28;20198;-69
2021/12/26 05:22:42;;;;;;;0.83;0.83;;;2.00;99.90;1.50;100340.00;;;;5016389;28;20529;-70
2021/12/26 05:25:11;;;;;;;1.20;1.10;;;2.00;99.90;1.50;100342.00;;;;5033327;28;20279;-70
2021/12/26 05:27:48;;;;;;;10.47;3.63;;;1.90;99.90;1.00;100339.00;;;;5033265;28;20226;-70
2021/12/26 05:30:25;;;;;;;1.63;1.53;;;1.80;99.90;1.50;100337.00;;;;5000226;28;20623;-69
2021/12/26 05:33:04;;;;;;;1.87;1.73;;;1.80;99.90;1.10;100334.00;;;;5016460;28;20210;-69
2021/12/26 05:35:43;;;;;;;3.23;1.20;;;1.70;99.90;1.30;100334.00;;;;5017206;28;20343;-69
2021/12/26 05:38:25;;;;;;;2.37;1.40;;;1.80;99.90;0.80;100266.00;;;;5034163;28;20171;-70
2021/12/26 05:41:01;;;;;;;1.80;1.53;;;1.60;99.90;0.60;100336.00;;;;5016852;28;20167;-68
2021/12/26 05:43:37;;;;;;;0.67;0.67;;;1.50;99.90;1.40;100349.00;;;;5016426;28;20320;-69
2021/12/26 05:46:11;;;;;;;2.87;2.77;;;1.70;99.90;1.20;100288.00;;;;5016657;28;20241;-69
2021/12/26 05:48:44;;;;;;;7.17;6.50;;;1.70;99.90;1.90;100358.00;;;;5016098;28;20185;-69
2021/12/26 05:51:22;;;;;;;1.50;1.40;;;2.00;99.90;1.70;100335.00;;;;5015942;28;20231;-69
2021/12/26 05:53:57;;;;;;;1.70;1.40;;;2.00;99.90;1.90;100334.00;;;;5016262;28;20182;-69
2021/12/26 05:56:31;;;;;;;1.53;1.30;;;2.10;99.90;1.40;100339.00;;;;5032481;28;20186;-69
2021/12/26 05:59:08;;;;;;;2.87;2.30;;;2.00;99.90;1.10;100335.00;;;;5015762;28;20217;-69
2021/12/26 06:01:45;;;;;;;4.63;2.77;;;1.90;99.90;1.20;100334.00;;;;5033649;28;20642;-69
2021/12/26 06:04:24;;;;;;;1.63;1.20;;;1.80;99.90;1.30;100346.00;;;;5016267;28;20698;-70
2021/12/26 06:06:58;;;;;;;1.33;1.23;;;1.90;99.90;2.20;100354.00;;;;5032457;28;20183;-69
2021/12/26 06:09:37;;;;;;;0.80;0.80;;;2.20;99.90;2.20;100330.00;;;;5015344;28;20288;-69
2021/12/26 06:12:14;;;;;;;1.73;1.60;;;2.30;99.90;2.20;100332.00;;;;5016208;28;20202;-69
2021/12/26 06:14:50;;;;;;;4.37;1.57;;;2.30;99.90;1.90;100335.00;;;;5016125;28;20629;-69
2021/12/26 06:17:18;;;;;;;2.07;1.87;;;2.20;99.90;2.30;100347.00;;;;5015517;28;20200;-68
2021/12/26 06:19:57;;;;;;;0.30;0.30;;;2.40;99.90;2.20;100352.00;;;;5015780;28;20613;-69
2021/12/26 06:22:30;;;;;;;1.90;1.63;;;2.50;99.90;2.20;100352.00;;;;5015665;28;20594;-69
2021/12/26 06:25:05;;;;;;;2.90;1.63;;;2.50;99.90;2.60;100279.00;;;;5033184;28;20277;-69
2021/12/26 06:27:36;;;;;;;0.40;0.40;;;2.60;99.90;2.70;100350.00;;;;5015802;28;20260;-69
2021/12/26 06:30:10;;;;;;;7.67;4.53;;;2.80;99.90;2.10;100338.00;;;;4999424;28;20182;-69
2021/12/26 06:32:47;;;;;;;18.80;4.50;;;2.60;99.90;1.50;100317.00;;;;5015558;28;20209;-69
2021/12/26 06:35:21;;;;;;;2.00;1.07;;;2.30;99.90;1.70;100270.00;;;;5015486;28;20182;-69
2021/12/26 06:37:49;;;;;;;4.43;2.63;;;2.20;99.90;1.20;100323.00;;;;5031803;28;20190;-69
2021/12/26 06:40:27;;;;;;;3.00;1.43;;;2.10;99.90;1.70;100324.00;;;;5032009;28;20182;-70
2021/12/26 06:42:58;;;;;;;1.20;1.00;;;2.20;99.90;1.90;100267.00;;;;5016136;28;20186;-69
2021/12/26 06:45:29;;;;;;;1.50;0.90;;;2.30;99.90;2.10;100317.00;;;;5015704;28;20250;-69
2021/12/26 06:48:06;;;;;;;3.63;2.13;;;2.30;99.90;2.10;100321.00;;;;5033118;28;20233;-69
2021/12/26 06:50:38;;;;;;;1.70;1.60;;;2.20;99.90;2.00;100310.00;;;;5015820;28;20543;-69
2021/12/26 06:53:15;;;;;;;7.10;3.50;;;2.30;99.90;2.10;100308.00;;;;5033690;28;20202;-69
2021/12/26 06:55:55;;;;;;;0.47;0.47;;;2.40;99.90;2.10;100313.00;;;;5019708;28;20186;-69
2021/12/26 06:58:26;;;;;;;3.30;3.00;;;2.50;99.90;2.10;100317.00;;;;5019331;28;20182;-69
2021/12/26 07:01:03;;;;;;;1.73;1.63;;;2.50;99.90;1.80;100301.00;;;;5019246;28;20183;-69
2021/12/26 07:03:34;;;;;;;0.57;0.57;;;2.30;99.90;2.40;100301.00;;;;5035539;28;20178;-69
2021/12/26 07:06:03;;;;;;;1.00;1.00;;;2.50;99.90;1.50;100309.00;;;;5037086;28;20182;-70
2021/12/26 07:08:39;;;;;;;3.17;2.97;;;2.30;99.90;1.50;100300.00;;;;5019120;28;20183;-70
2021/12/26 07:11:16;;;;;;;1.53;1.43;;;2.30;99.90;2.10;100265.00;;;;5018913;28;20174;-70
2021/12/26 07:13:56;;;;;;;2.60;1.93;;;2.40;99.90;1.70;100303.00;;;;5018972;28;20186;-69
2021/12/26 07:16:36;;;;;;;1.50;1.33;;;2.40;99.90;1.70;100303.00;;;;5018968;28;20224;-69
2021/12/26 07:19:11;;;;;;;1.97;1.53;;;2.40;99.90;2.10;100307.00;;;;5035423;28;20178;-69
2021/12/26 07:21:44;;;;;;;3.00;2.67;;;2.50;99.90;1.50;100307.00;;;;5002598;28;20240;-69
2021/12/26 07:24:19;;;;;;;1.10;1.00;;;2.30;99.90;1.70;100304.00;;;;5035293;28;20190;-69
2021/12/26 07:26:51;;;;;;;2.50;2.40;;;2.20;99.90;2.00;100291.00;;;;5018296;28;20192;-70
2021/12/26 07:29:27;;;;;;;1.53;1.43;;;2.30;99.90;1.40;100299.00;;;;5035313;28;20183;-69
2021/12/26 07:32:03;;;;;;;1.50;1.33;;;2.20;99.90;1.70;100323.00;;;;5034875;28;20674;-69
2021/12/26 07:34:40;;;;;;;4.87;3.30;;;2.20;99.90;1.80;100319.00;;;;5019147;28;20190;-69
2021/12/26 07:37:15;;;;;;;2.57;1.70;;;2.30;99.90;2.20;100317.00;;;;5019046;28;20174;-69
2021/12/26 07:39:50;;;;;;;0.80;0.80;;;2.40;99.90;1.80;100288.00;;;;5018251;28;20216;-69
2021/12/26 07:42:23;;;;;;;3.37;2.57;;;2.30;99.90;1.60;100303.00;;;;5018609;28;20635;-70
2021/12/26 07:45:00;;;;;;;1.40;1.30;;;2.20;99.90;1.80;100323.00;;;;5019026;28;20253;-70
2021/12/26 07:47:33;;;;;;;3.50;3.10;;;2.20;99.90;1.60;100314.00;;;;5018321;28;20175;-69
2021/12/26 07:50:02;;;;;;;5.63;3.80;;;2.30;99.90;1.50;100314.00;;;;5017844;28;20186;-71
2021/12/26 07:52:38;;;;;;;3.23;2.93;;;2.20;99.90;1.60;100253.00;;;;5014911;28;20723;-71
2021/12/26 07:55:17;;;;;;;7.43;4.73;;;2.20;99.90;1.70;100318.00;;;;5014667;28;20189;-69
2021/12/26 07:57:52;;;;;;;4.03;3.63;;;2.20;99.90;1.60;100309.00;;;;5014937;28;20179;-70
2021/12/26 08:00:28;;;;;;;2.47;2.27;;;2.30;99.90;1.90;100314.00;;;;5014988;28;20179;-73
2021/12/26 08:03:02;;;;;;;3.70;2.90;;;2.40;99.90;1.80;100300.00;;;;5014808;28;20608;-72
2021/12/26 08:05:39;;;;;;;1.50;1.43;;;2.40;99.90;1.70;100302.00;;;;5014583;28;20164;-72
2021/12/26 08:08:18;;;;;;;1.77;1.67;;;2.30;99.90;1.60;100312.00;;;;4998631;28;20179;-73
2021/12/26 08:10:56;;;;;;;1.67;1.57;;;2.30;99.90;2.20;100310.00;;;;5014441;28;20625;-71
2021/12/26 08:13:29;;;;;;;2.60;2.40;;;2.40;99.90;1.90;100330.00;;;;5014612;28;20226;-70
2021/12/26 08:16:03;;;;;;;3.17;2.87;;;2.50;99.90;2.30;100312.00;;;;4998814;28;20179;-71
2021/12/26 08:18:38;;;;;;;1.90;1.70;;;2.60;99.90;1.80;100316.00;;;;4998178;28;20187;-69
2021/12/26 08:21:17;;;;;;;6.30;5.80;;;2.40;99.90;2.10;100302.00;;;;4998057;28;20201;-71
2021/12/26 08:23:53;;;;;;;2.83;2.57;;;2.50;99.90;2.30;100312.00;;;;5014134;28;20194;-70
2021/12/26 08:26:32;;;;;;;1.17;1.07;;;2.60;99.90;2.80;100316.00;;;;4998228;28;20210;-70
2021/12/26 08:29:06;;;;;;;2.63;2.40;;;2.80;99.90;2.50;100283.00;;;;4998086;28;20569;-70
2021/12/26 08:31:42;;;;;;;3.23;2.30;;;2.80;99.90;2.50;100315.00;;;;4997716;28;20322;-70
2021/12/26 08:34:21;;;;;;;0.30;0.30;;;2.80;99.90;2.80;100326.00;;;;5015755;28;20174;-70
2021/12/26 08:37:01;;;;;;;1.27;1.17;;;2.90;99.90;2.40;100336.00;;;;5014397;28;20176;-70
2021/12/26 08:39:37;;;;;;;2.17;1.97;;;2.80;99.90;2.60;100318.00;;;;5014369;28;20174;-70
2021/12/26 08:42:16;;;;;;;1.20;1.10;;;3.00;99.90;2.40;100324.00;;;;5014171;28;20179;-70
2021/12/26 08:44:49;;;;;;;3.83;1.77;;;2.80;99.90;2.60;100324.00;;;;4996843;28;20246;-70
2021/12/26 08:47:28;;;;;;;2.20;1.87;;;2.90;99.90;2.80;100279.00;;;;5015275;28;20197;-70
2021/12/26 08:50:04;;;;;;;4.93;4.10;;;3.10;99.90;2.60;100322.00;;;;4997624;28;20183;-71
2021/12/26 08:52:38;;;;;;;1.57;1.47;;;3.20;99.90;2.40;100301.00;;;;4997209;28;20675;-70
2021/12/26 08:55:12;;;;;;;1.53;1.43;;;3.10;99.90;3.30;100301.00;;;;4997390;28;20190;-70
2021/12/26 08:57:49;;;;;;;0.80;0.80;;;3.30;99.90;3.40;100272.00;;;;5014001;28;20624;-70
2021/12/26 09:00:20;;;;;;;0.97;0.93;;;3.40;99.90;3.40;100314.00;;;;4998252;28;20210;-68
2021/12/26 09:02:51;;;;;;;1.20;1.20;;;3.70;99.90;3.40;100322.00;;;;4997125;28;20197;-68
2021/12/26 09:05:28;;;;;;;1.47;0.67;;;3.70;99.90;3.60;100335.00;;;;4997840;28;20234;-68
2021/12/26 09:08:02;;;;;;;0.97;0.97;;;3.60;99.90;3.60;100324.00;;;;5013218;28;20183;-67
2021/12/26 09:10:36;;;;;;;1.70;1.63;;;3.60;99.90;3.50;100321.00;;;;5014945;28;20242;-68
2021/12/26 09:13:11;;;;;;;3.63;2.43;;;3.80;99.90;2.70;100323.00;;;;5013461;28;20192;-67
2021/12/26 09:15:47;;;;;;;2.27;2.07;;;3.40;99.90;2.70;100317.00;;;;5012971;28;20186;-69
2021/12/26 09:18:20;;;;;;;1.63;1.60;;;3.20;99.90;3.50;100311.00;;;;5013179;28;20632;-70
2021/12/26 09:20:54;;;;;;;1.80;1.70;;;3.50;99.90;3.20;100316.00;;;;4997152;28;20639;-70
2021/12/26 09:23:32;;;;;;;2.30;1.87;;;3.40;99.90;3.50;100318.00;;;;4996703;28;20191;-70
2021/12/26 09:26:10;;;;;;;0.50;0.50;;;3.60;99.90;3.70;100333.00;;;;5013366;28;20171;-70
2021/12/26 09:28:50;;;;;;;0.80;0.80;;;3.70;99.90;3.60;100313.00;;;;5013066;28;20183;-70
2021/12/26 09:31:28;;;;;;;1.70;1.60;;;3.70;99.90;3.40;100317.00;;;;5014428;28;20191;-70
2021/12/26 09:34:02;;;;;;;3.60;2.93;;;3.70;99.90;2.80;100316.00;;;;4980640;28;20274;-70
2021/12/26 09:36:36;;;;;;;4.07;3.63;;;3.60;99.90;2.60;100323.00;;;;5012742;28;20222;-70
2021/12/26 09:39:16;;;;;;;1.03;1.03;;;3.40;99.90;2.90;100315.00;;;;4996451;28;20183;-70
2021/12/26 09:41:53;;;;;;;1.13;1.13;;;3.30;99.90;3.10;100330.00;;;;5014014;28;20180;-70
2021/12/26 09:44:48;;;;;;;1.40;1.30;;;3.50;99.90;3.10;100322.00;;;;4996762;28;20217;-70
2021/12/26 09:47:19;;;;;;;2.10;1.80;;;3.50;99.90;3.30;100321.00;;;;5012944;28;20697;-70
2021/12/26 09:49:55;;;;;;;2.20;1.67;;;3.60;99.90;2.80;100304.00;;;;4996015;28;20694;-70
2021/12/26 09:52:32;;;;;;;6.97;5.00;;;3.50;99.90;3.00;100304.00;;;;5012942;28;20206;-70
2021/12/26 09:55:09;;;;;;;0.97;0.93;;;3.40;99.90;3.40;100301.00;;;;4996310;28;20198;-70
2021/12/26 09:57:41;;;;;;;2.73;2.53;;;3.60;99.90;3.60;100316.00;;;;5012805;28;20631;-70
2021/12/26 10:00:40;;;;;;;3.87;3.07;;;3.80;99.90;2.90;100297.00;;;;5012492;28;20290;-70
2021/12/26 10:03:35;;;;;;;3.00;2.37;;;3.70;99.90;3.30;100307.00;;;;5014003;28;20269;-70
2021/12/26 10:06:14;;;;;;;3.20;2.63;;;3.60;99.90;3.10;100295.00;;;;5012323;28;20180;-70
2021/12/26 10:09:07;;;;;;;4.17;3.07;;;3.70;99.90;3.00;100301.00;;;;5012801;28;20195;-69
2021/12/26 10:11:53;;;;;;;2.97;2.30;;;3.70;99.90;3.20;100303.00;;;;5012893;28;20223;-69
2021/12/26 10:14:28;;;;;;;1.53;1.43;;;3.70;99.90;3.10;100299.00;;;;5013544;28;20186;-69
2021/12/26 10:17:08;;;;;;;3.77;2.63;;;3.70;99.90;3.40;100306.00;;;;5012389;28;20632;-69
2021/12/26 10:19:49;;;;;;;2.60;2.23;;;3.80;99.90;4.00;100307.00;;;;5012140;28;20563;-69
2021/12/26 10:33:28;;;;;;;2.87;2.27;;;4.20;99.90;4.10;100292.00;;;;5051124;28;20698;-68
2021/12/26 10:36:07;;;;;;;1.80;1.70;;;4.50;99.90;4.50;100286.00;;;;5049573;28;20208;-69
2021/12/26 10:38:55;;;;;;;0.87;0.87;;;4.80;99.90;4.70;100290.00;;;;5050637;28;20167;-68
2021/12/26 10:41:32;;;;;;;7.10;3.40;;;4.90;99.90;4.50;100284.00;;;;5033109;28;20189;-68
2021/12/26 10:44:09;;;;;;;5.13;4.70;;;4.80;99.90;4.60;100280.00;;;;5049075;28;20189;-69
2021/12/26 10:46:53;;;;;;;4.00;3.67;;;4.80;99.90;4.70;100287.00;;;;5049305;28;20572;-69
2021/12/26 10:49:32;;;;;;;4.40;4.00;;;4.90;99.90;4.60;100277.00;;;;5049155;28;20186;-69
2021/12/26 10:52:15;;;;;;;2.80;1.40;;;5.00;99.90;4.70;100263.00;;;;5032699;28;20202;-68
2021/12/26 10:54:55;;;;;;;5.27;2.47;;;4.90;99.90;4.70;100257.00;;;;5049122;28;20181;-68
2021/12/26 10:57:31;;;;;;;0.70;0.70;;;4.90;99.90;5.00;100275.00;;;;5050231;28;20182;-68
2021/12/26 11:00:18;;;;;;;2.23;1.60;;;5.10;99.90;5.40;100261.00;;;;5049013;28;20628;-68
2021/12/26 11:02:50;;;;;;;0.30;0.30;;;5.30;99.90;5.90;100283.00;;;;5048615;28;20198;-69
2021/12/26 11:05:29;;;;;;;1.73;1.40;;;5.70;99.90;6.20;100270.00;;;;5050159;28;20186;-68
2021/12/26 11:08:06;;;;;;;1.37;1.27;;;6.00;99.90;5.60;100269.00;;;;5049856;28;20206;-69
2021/12/26 11:10:52;;;;;;;4.37;2.97;;;6.00;99.90;4.90;100256.00;;;;5032175;28;20194;-68
2021/12/26 11:13:30;;;;;;;0.77;0.77;;;5.60;99.90;6.00;100260.00;;;;5048922;28;20236;-68
2021/12/26 11:16:06;;;;;;;2.90;2.70;;;5.90;99.90;5.30;100259.00;;;;5048774;28;20180;-68
2021/12/26 11:18:39;;;;;;;2.07;1.97;;;5.80;99.90;5.60;100252.00;;;;5048300;28;20176;-68
2021/12/26 11:21:13;;;;;;;2.77;1.70;;;5.80;99.90;5.20;100258.00;;;;5048357;28;20169;-68
2021/12/26 11:23:44;;;;;;;0.80;0.80;;;5.60;99.90;5.60;100254.00;;;;5049053;28;20700;-68
2021/12/26 11:26:24;;;;;;;3.13;2.83;;;5.80;99.90;5.50;100244.00;;;;5048306;28;20184;-68
2021/12/26 11:28:58;;;;;;;2.57;2.37;;;6.00;99.90;5.00;100248.00;;;;5048294;28;20211;-68
2021/12/26 11:31:40;;;;;;;2.70;2.50;;;5.70;99.90;5.40;100236.00;;;;5048114;28;20220;-68
2021/12/26 11:34:20;;;;;;;6.63;3.37;;;5.80;99.90;5.50;100244.00;;;;5048483;28;20649;-68
2021/12/26 11:37:00;;;;;;;1.73;1.53;;;5.70;99.90;5.20;100225.00;;;;5048621;28;20259;-68
2021/12/26 11:39:37;;;;;;;3.70;3.10;;;5.70;99.90;5.40;100244.00;;;;5048136;28;20180;-68
2021/12/26 11:42:37;;;;;;;1.03;1.03;;;5.90;99.90;5.60;100186.00;;;;5048264;28;20628;-69
2021/12/26 11:45:29;;;;;;;4.13;3.73;;;5.80;99.90;5.90;100187.00;;;;5034745;28;20202;-68
2021/12/26 11:48:46;;;;;;;2.00;1.77;;;5.80;99.90;5.40;100223.00;;;;5034489;28;20231;-70
2021/12/26 11:52:00;;;;;;;1.03;1.00;;;5.90;99.90;5.50;100210.00;;;;5034755;28;20280;-69
2021/12/26 11:55:11;;;;;;;3.60;3.03;;;5.80;99.90;5.00;100222.00;;;;5034727;28;20185;-68
2021/12/26 11:58:10;;;;;;;1.87;1.77;;;5.70;99.90;5.10;100167.00;;;;5024689;28;20197;-68